Time;durP1;ratioP1;P1;durP2;ratioP2;P2;SDS_P1;SDS_P2;PMS_P1;PMS_P2;Temp;Humidity;BMP_temperature;BMP_pressure;BME280_temperature;BME280_humidity;BME280_pressure;Samples;Min_cycle;Max_cycle;Signal;HPM_P1;HPM_P2
2021/12/14 07:20:00;;;;;;;5.57;4.63;;;;;;;3.83;100.00;92522.31;5074046;27;20985;-80
2021/12/14 07:22:41;;;;;;;16.47;13.17;;;;;;;4.09;98.38;92555.94;5074547;27;20283;-82
2021/12/14 07:25:13;;;;;;;6.13;5.57;;;;;;;3.96;98.89;92563.69;5075503;27;20212;-82
2021/12/14 07:27:40;;;;;;;2.27;2.13;;;;;;;3.32;98.17;92477.47;5074053;27;20452;-82
2021/12/14 07:30:18;;;;;;;17.33;8.37;;;;;;;3.23;98.21;92462.63;5073926;27;20572;-83
2021/12/14 07:32:53;;;;;;;18.97;8.67;;;;;;;3.12;99.68;92467.81;5075548;27;20192;-84
2021/12/14 07:35:38;;;;;;;3.53;3.37;;;;;;;2.97;100.00;92459.78;5074028;27;20552;-82
2021/12/14 07:38:21;;;;;;;2.97;2.77;;;;;;;3.52;100.00;92549.50;5060847;27;20588;-84
2021/12/14 07:40:53;;;;;;;4.53;3.70;;;;;;;2.89;100.00;92494.81;5064678;28;20472;-82
2021/12/14 07:43:23;;;;;;;5.60;4.03;;;;;;;2.80;100.00;92488.31;5055858;28;20571;-81
2021/12/14 07:45:54;;;;;;;7.93;5.27;;;;;;;3.09;100.00;92560.22;5057582;28;20567;-81
2021/12/14 07:48:24;;;;;;;5.30;5.00;;;;;;;2.68;100.00;92525.09;5055263;28;20497;-81
2021/12/14 07:50:56;;;;;;;4.43;4.03;;;;;;;2.28;100.00;92478.28;5055469;28;20455;-82
2021/12/14 07:53:37;;;;;;;5.53;4.03;;;;;;;2.72;100.00;92564.09;5055385;28;20522;-81
2021/12/14 07:56:06;;;;;;;10.27;5.97;;;;;;;2.83;100.00;92573.06;5054334;28;20604;-82
2021/12/14 07:58:36;;;;;;;6.63;6.23;;;;;;;2.89;100.00;92577.13;5053693;27;20619;-81
2021/12/14 08:01:05;;;;;;;3.43;3.13;;;;;;;2.15;100.00;92471.81;5054926;28;20476;-83
2021/12/14 08:03:33;;;;;;;2.13;2.03;;;;;;;2.11;100.00;92477.69;5063144;28;20591;-80
2021/12/14 08:06:05;;;;;;;3.30;3.20;;;;;;;2.42;100.00;92533.75;5060673;27;20681;-80
2021/12/14 08:08:42;;;;;;;3.13;2.93;;;;;;;2.67;100.00;92590.75;5056301;27;20351;-84
2021/12/14 08:11:40;;;;;;;4.07;3.70;;;;;;;2.59;100.00;92580.09;5054646;28;20587;-84
2021/12/14 08:14:12;;;;;;;4.50;4.30;;;;;;;2.78;100.00;92591.44;5055288;28;20197;-83
2021/12/14 08:16:43;;;;;;;2.27;2.17;;;;;;;2.82;100.00;92588.03;5055240;28;20540;-81
2021/12/14 08:19:15;;;;;;;1.23;1.23;;;;;;;2.66;100.00;92550.03;5053653;28;20651;-83
2021/12/14 08:21:45;;;;;;;2.50;2.40;;;;;;;2.96;100.00;92592.84;5054966;28;20652;-83
2021/12/14 08:24:13;;;;;;;5.37;4.43;;;;;;;2.87;100.00;92586.34;5061588;27;20491;-81
2021/12/14 08:26:44;;;;;;;4.07;3.87;;;;;;;2.82;100.00;92581.38;5055525;28;20538;-82
2021/12/14 08:29:15;;;;;;;4.63;3.70;;;;;;;2.41;100.00;92493.91;5061849;27;20671;-85
2021/12/14 08:31:46;;;;;;;3.40;3.20;;;;;;;3.14;100.00;92598.41;5050570;28;20650;-83
2021/12/14 08:34:23;;;;;;;5.17;4.97;;;;;;;2.39;100.00;92469.00;5044150;28;20201;-83
2021/12/14 08:37:06;;;;;;;13.60;5.67;;;;;;;3.05;100.00;92565.25;5055547;28;20583;-81
2021/12/14 08:39:41;;;;;;;38.70;14.53;;;;;;;2.64;100.00;92486.09;5055693;28;20648;-84
2021/12/14 08:42:21;;;;;;;7.33;6.90;;;;;;;3.30;100.00;92591.50;5055075;28;20620;-87
2021/12/14 08:44:54;;;;;;;3.73;3.53;;;;;;;2.93;100.00;92518.84;5050333;28;20653;-84
2021/12/14 08:47:33;;;;;;;6.73;4.73;;;;;;;3.16;100.00;92563.41;5049863;28;20560;-79
2021/12/14 08:50:05;;;;;;;9.30;4.50;;;;;;;2.75;100.00;92489.25;5047070;28;20608;-80
2021/12/14 08:52:42;;;;;;;6.37;3.60;;;;;;;3.22;100.00;92558.31;5042760;28;20554;-81
2021/12/14 08:55:12;;;;;;;5.37;5.17;;;;;;;3.29;100.00;92578.19;5043462;28;20292;-82
2021/12/14 08:57:44;;;;;;;14.60;7.10;;;;;;;3.44;100.00;92588.75;5046983;28;20284;-83
2021/12/14 09:00:22;;;;;;;6.63;6.17;;;;;;;3.15;100.00;92520.19;5046038;28;20507;-84
2021/12/14 09:02:58;;;;;;;12.23;5.93;;;;;;;3.53;100.00;92586.13;5042656;28;20281;-85
2021/12/14 09:05:49;;;;;;;5.57;5.10;;;;;;;3.51;100.00;92581.13;5039716;28;20476;-82
2021/12/14 09:08:21;;;;;;;5.30;5.00;;;;;;;2.81;100.00;92461.72;5041159;28;20641;-82
2021/12/14 09:10:56;;;;;;;14.03;9.23;;;;;;;3.55;100.00;92572.72;5040671;28;20549;-80
2021/12/14 09:13:25;;;;;;;30.30;11.90;;;;;;;3.21;100.00;92510.06;5040909;28;20251;-80
2021/12/14 09:15:56;;;;;;;11.00;9.80;;;;;;;3.28;100.00;92523.28;5047964;28;20553;-79
2021/12/14 09:18:26;;;;;;;7.50;6.77;;;;;;;3.57;100.00;92556.06;5042272;28;20600;-79
2021/12/14 09:20:56;;;;;;;6.03;5.50;;;;;;;3.60;100.00;92567.69;5045902;28;20565;-79
2021/12/14 09:23:30;;;;;;;17.83;10.50;;;;;;;3.61;100.00;92554.31;5041935;28;20604;-79
2021/12/14 09:26:03;;;;;;;11.60;9.10;;;;;;;3.39;100.00;92513.94;5042001;28;20577;-83
2021/12/14 09:28:32;;;;;;;16.20;9.43;;;;;;;3.59;100.00;92533.56;5037847;28;20510;-79
2021/12/14 09:31:02;;;;;;;9.07;6.13;;;;;;;3.78;100.00;92567.34;5039432;28;20565;-79
2021/12/14 09:33:30;;;;;;;6.40;6.03;;;;;;;3.37;100.00;92500.66;5042875;28;20205;-78
2021/12/14 09:35:58;;;;;;;8.63;4.17;;;;;;;3.81;100.00;92558.97;5039413;27;20512;-79
2021/12/14 09:38:33;;;;;;;3.90;3.70;;;;;;;3.50;100.00;92514.56;5037843;28;20544;-81
2021/12/14 09:41:05;;;;;;;4.83;4.17;;;;;;;3.63;100.00;92548.47;5039219;28;20200;-80
2021/12/14 09:43:33;;;;;;;25.40;15.13;;;;;;;2.98;100.00;92442.28;5041211;28;20485;-84
2021/12/14 09:46:02;;;;;;;9.43;8.83;;;;;;;3.59;100.00;92518.59;5044986;28;20498;-82
2021/12/14 09:48:34;;;;;;;5.47;5.20;;;;;;;3.34;100.00;92461.59;5041426;28;20584;-82
2021/12/14 09:51:10;;;;;;;2.17;2.17;;;;;;;3.27;100.00;92464.22;5044417;28;20270;-84
2021/12/14 09:53:44;;;;;;;3.70;3.37;;;;;;;3.50;100.00;92497.06;5041414;28;20579;-82
2021/12/14 09:56:14;;;;;;;5.87;5.47;;;;;;;3.24;100.00;92440.16;5040403;28;20489;-85
2021/12/14 09:58:49;;;;;;;5.53;5.10;;;;;;;3.19;100.00;92426.94;5041922;28;20646;-83
2021/12/14 10:01:19;;;;;;;6.53;2.60;;;;;;;3.87;100.00;92536.38;5042351;28;20476;-81
2021/12/14 10:03:50;;;;;;;2.97;2.87;;;;;;;3.82;100.00;92528.97;5041675;28;20584;-81
2021/12/14 10:06:24;;;;;;;2.33;2.30;;;;;;;3.38;100.00;92464.03;5040752;28;20465;-78
2021/12/14 10:09:00;;;;;;;3.97;3.83;;;;;;;3.80;100.00;92517.34;5041101;28;20621;-77
2021/12/14 10:11:42;;;;;;;3.77;3.30;;;;;;;3.96;100.00;92532.00;5035869;28;20610;-76
2021/12/14 10:14:11;;;;;;;4.13;3.67;;;;;;;3.85;100.00;92513.09;5035831;28;20520;-76
2021/12/14 10:16:39;;;;;;;8.27;7.27;;;;;;;4.00;100.00;92525.31;5038090;28;20584;-76
2021/12/14 10:19:10;;;;;;;10.83;9.67;;;;;;;3.34;100.00;92424.13;5036444;28;20217;-78
2021/12/14 10:21:39;;;;;;;9.33;7.43;;;;;;;3.97;100.00;92528.66;5041601;28;20185;-81
2021/12/14 10:24:09;;;;;;;2.20;2.13;;;;;;;3.78;100.00;92497.38;5036347;27;20596;-79
2021/12/14 10:26:40;;;;;;;3.30;3.10;;;;;;;3.84;100.00;92531.41;5036500;27;20568;-77
2021/12/14 10:29:08;;;;;;;3.73;3.63;;;;;;;3.80;100.00;92533.16;5039823;28;20243;-78
2021/12/14 10:31:41;;;;;;;29.47;18.80;;;;;;;3.80;100.00;92518.19;5036811;28;20198;-78
2021/12/14 10:34:14;;;;;;;10.70;9.70;;;;;;;3.53;100.00;92476.22;5043361;28;20604;-78
2021/12/14 10:36:45;;;;;;;7.63;7.03;;;;;;;3.42;100.00;92480.59;5036727;28;20233;-76
2021/12/14 10:39:25;;;;;;;14.50;8.27;;;;;;;3.40;100.00;92472.31;5039821;28;20648;-77
2021/12/14 10:44:43;;;;;;;15.90;10.30;;;;;;;3.65;100.00;92515.97;5047117;28;20587;-76
2021/12/14 10:47:13;;;;;;;5.10;4.70;;;;;;;3.49;100.00;92517.94;5046584;28;20608;-76
2021/12/14 10:49:41;;;;;;;4.10;3.07;;;;;;;3.55;100.00;92529.50;5044839;28;20679;-76
2021/12/14 10:52:14;;;;;;;5.60;3.10;;;;;;;3.45;100.00;92503.84;5045339;28;20612;-76
2021/12/14 10:54:46;;;;;;;6.07;5.57;;;;;;;3.66;100.00;92527.63;5041284;28;20565;-76
2021/12/14 10:57:17;;;;;;;4.60;4.37;;;;;;;3.65;100.00;92518.47;5042341;28;20220;-76
2021/12/14 10:59:48;;;;;;;6.47;4.30;;;;;;;3.52;100.00;92500.38;5040661;28;20492;-74
2021/12/14 11:02:15;;;;;;;8.43;3.73;;;;;;;3.49;100.00;92502.13;5044475;28;20438;-77
2021/12/14 11:04:53;;;;;;;3.73;3.63;;;;;;;3.25;100.00;92483.41;5045946;28;20579;-76
2021/12/14 11:07:23;;;;;;;4.13;3.93;;;;;;;3.20;100.00;92505.13;5038678;28;20557;-74
2021/12/14 11:09:55;;;;;;;6.60;6.17;;;;;;;3.12;100.00;92504.41;5037883;28;20221;-76
2021/12/14 11:12:29;;;;;;;5.17;4.93;;;;;;;3.30;100.00;92519.09;5038330;28;20680;-77
2021/12/14 11:14:59;;;;;;;5.83;5.57;;;;;;;2.80;100.00;92443.41;5048617;28;20577;-75
2021/12/14 11:20:21;;;;;;;3.07;2.77;;;;;;;3.48;100.00;92515.47;5046215;28;20705;-77
2021/12/14 11:22:51;;;;;;;4.80;4.37;;;;;;;3.55;100.00;92519.50;5045043;28;20569;-76
2021/12/14 11:25:23;;;;;;;4.87;4.57;;;;;;;3.47;100.00;92503.81;5049125;28;20213;-77
2021/12/14 11:27:58;;;;;;;3.63;3.43;;;;;;;3.34;100.00;92500.69;5036663;28;20220;-77
2021/12/14 11:30:29;;;;;;;2.50;2.40;;;;;;;3.42;100.00;92513.06;5039504;28;20506;-79
2021/12/14 11:33:08;;;;;;;1.87;1.77;;;;;;;3.45;100.00;92493.03;5037308;28;20263;-80
2021/12/14 11:35:40;;;;;;;12.47;5.73;;;;;;;3.49;100.00;92499.63;5037735;28;20474;-78
2021/12/14 11:38:23;;;;;;;5.10;4.73;;;;;;;3.64;100.00;92510.16;5041849;28;20462;-78
2021/12/14 11:43:36;;;;;;;4.70;3.33;;;;;;;3.51;100.00;92483.75;5040613;28;20463;-79
2021/12/14 11:46:10;;;;;;;3.03;2.93;;;;;;;3.62;100.00;92496.84;5035577;28;20576;-78
2021/12/14 11:48:41;;;;;;;4.20;4.00;;;;;;;3.55;100.00;92497.81;5040359;28;20198;-79
2021/12/14 11:51:12;;;;;;;2.70;2.60;;;;;;;3.05;100.00;92430.50;5038061;28;20620;-78
2021/12/14 11:53:47;;;;;;;2.80;2.23;;;;;;;3.57;100.00;92512.78;5043894;28;20557;-79
2021/12/14 11:56:18;;;;;;;8.63;5.30;;;;;;;3.39;100.00;92483.13;5038080;28;20259;-77
2021/12/14 11:58:50;;;;;;;3.60;3.40;;;;;;;3.50;100.00;92507.06;5038292;28;20475;-77
2021/12/14 12:01:21;;;;;;;2.57;2.27;;;;;;;2.87;100.00;92415.00;5043827;28;20476;-77
2021/12/14 12:03:55;;;;;;;3.40;3.20;;;;;;;3.44;100.00;92503.84;5038532;28;20483;-78
2021/12/14 12:06:44;;;;;;;7.80;7.20;;;;;;;3.46;100.00;92507.97;5038316;28;20224;-78
2021/12/14 12:09:30;;;;;;;5.83;5.33;;;;;;;3.40;100.00;92494.78;5047816;28;20604;-77
2021/12/14 12:12:25;;;;;;;5.23;3.33;;;;;;;3.53;100.00;92509.53;5042085;28;20504;-77
2021/12/14 12:14:55;;;;;;;4.70;4.40;;;;;;;3.51;100.00;92520.38;5024284;27;20588;-77
2021/12/14 12:17:30;;;;;;;7.37;6.77;;;;;;;3.53;100.00;92512.03;5040903;28;20565;-75
2021/12/14 12:20:08;;;;;;;3.33;3.23;;;;;;;3.48;100.00;92518.78;5043762;28;20478;-77
2021/12/14 12:22:38;;;;;;;4.23;4.03;;;;;;;3.37;100.00;92520.63;5044117;28;20557;-77
2021/12/14 12:25:07;;;;;;;5.23;4.93;;;;;;;3.24;100.00;92516.69;5041379;28;20197;-77
2021/12/14 12:27:41;;;;;;;5.50;5.23;;;;;;;3.21;100.00;92490.09;5045179;28;20552;-77
2021/12/14 12:30:29;;;;;;;10.67;9.07;;;;;;;3.32;100.00;92512.41;5040883;28;20618;-77
2021/12/14 12:33:00;;;;;;;16.17;8.47;;;;;;;3.42;100.00;92508.91;5043365;28;20593;-77
2021/12/14 12:35:32;;;;;;;5.37;4.97;;;;;;;3.49;100.00;92505.44;5038516;28;20581;-77
2021/12/14 12:38:02;;;;;;;3.43;3.30;;;;;;;3.50;100.00;92516.22;5040648;28;20506;-77
2021/12/14 12:40:49;;;;;;;6.13;5.73;;;;;;;3.58;100.00;92511.94;5049668;28;20573;-77
2021/12/14 12:43:22;;;;;;;5.23;4.47;;;;;;;3.45;100.00;92511.31;5041326;28;20286;-77
2021/12/14 12:46:00;;;;;;;7.80;5.30;;;;;;;3.56;100.00;92508.63;5040204;28;20522;-77
2021/12/14 12:48:46;;;;;;;6.40;5.70;;;;;;;3.60;100.00;92513.56;5042170;28;20268;-77
2021/12/14 12:51:52;;;;;;;14.07;11.33;;;;;;;3.08;100.00;92438.78;5040396;28;20631;-77
2021/12/14 12:54:27;;;;;;;11.13;6.97;;;;;;;3.47;100.00;92497.16;5029283;28;20593;-75
2021/12/14 12:57:12;;;;;;;5.23;4.90;;;;;;;3.60;100.00;92512.75;5046679;28;20600;-77
2021/12/14 12:59:49;;;;;;;5.33;4.97;;;;;;;3.41;100.00;92502.25;5042027;28;20573;-78
2021/12/14 13:02:22;;;;;;;7.23;6.73;;;;;;;3.45;100.00;92510.50;5043387;28;20565;-78
2021/12/14 13:04:53;;;;;;;9.77;7.07;;;;;;;3.54;100.00;92520.34;5047777;28;20584;-79
2021/12/14 13:07:31;;;;;;;15.77;8.03;;;;;;;3.56;100.00;92524.44;5051169;28;20496;-76
2021/12/14 13:10:10;;;;;;;4.77;4.57;;;;;;;3.37;100.00;92508.16;5045990;28;20518;-79
2021/12/14 13:12:41;;;;;;;6.33;5.90;;;;;;;2.82;100.00;92445.88;5042175;28;20650;-80
2021/12/14 13:15:44;;;;;;;9.10;8.30;;;;;;;2.89;100.00;92462.38;5043563;28;20639;-79
2021/12/14 13:18:41;;;;;;;6.20;5.67;;;;;;;3.18;100.00;92489.34;5044637;28;20609;-78
2021/12/14 13:21:26;;;;;;;8.73;5.47;;;;;;;2.98;100.00;92454.75;5034577;28;20476;-81
2021/12/14 13:24:04;;;;;;;5.00;4.10;;;;;;;3.42;100.00;92528.03;5049713;28;20196;-78
2021/12/14 13:26:39;;;;;;;4.67;4.43;;;;;;;3.38;100.00;92526.47;5048229;28;20452;-76
2021/12/14 13:29:16;;;;;;;4.07;3.87;;;;;;;2.61;100.00;92426.28;5045289;28;20200;-76
2021/12/14 13:31:46;;;;;;;3.77;3.60;;;;;;;2.96;100.00;92483.91;5048030;28;20498;-76
2021/12/14 13:34:18;;;;;;;2.80;2.43;;;;;;;3.38;100.00;92526.47;5041696;28;20565;-75
2021/12/14 13:36:46;;;;;;;4.40;4.07;;;;;;;3.36;100.00;92528.16;5041697;28;20212;-74
2021/12/14 13:39:15;;;;;;;6.87;4.97;;;;;;;3.35;100.00;92522.34;5041851;27;20564;-74
2021/12/14 13:42:07;;;;;;;2.57;2.40;;;;;;;3.27;100.00;92516.63;5044861;27;20221;-74
2021/12/14 13:44:36;;;;;;;3.17;2.93;;;;;;;3.33;100.00;92532.34;5046246;27;20318;-74
2021/12/14 13:47:06;;;;;;;3.37;3.27;;;;;;;3.30;100.00;92534.91;5043614;28;20544;-74
2021/12/14 13:49:36;;;;;;;3.70;2.60;;;;;;;3.34;100.00;92536.47;5043959;28;20657;-74
2021/12/14 13:52:05;;;;;;;3.30;3.20;;;;;;;3.26;100.00;92538.31;5044169;28;20200;-73
2021/12/14 13:55:26;;;;;;;3.07;2.93;;;;;;;3.30;100.00;92537.41;5039784;28;20754;-73
2021/12/14 13:57:57;;;;;;;8.37;3.30;;;;;;;3.32;100.00;92538.16;5042858;28;20580;-73
2021/12/14 14:00:29;;;;;;;5.00;4.33;;;;;;;3.22;100.00;92533.38;5041991;28;20588;-73
2021/12/14 14:02:56;;;;;;;4.80;4.60;;;;;;;3.16;100.00;92536.78;5040458;28;20576;-73
2021/12/14 14:05:27;;;;;;;6.13;5.83;;;;;;;3.17;100.00;92542.59;5041833;28;20521;-73
2021/12/14 14:07:59;;;;;;;6.30;5.77;;;;;;;3.00;100.00;92534.56;5049586;28;20583;-73
2021/12/14 14:10:27;;;;;;;4.73;4.33;;;;;;;2.95;100.00;92534.63;5048429;28;20639;-73
2021/12/14 14:12:59;;;;;;;7.10;6.17;;;;;;;2.91;100.00;92540.53;5045686;27;20228;-74
2021/12/14 14:15:30;;;;;;;4.10;3.90;;;;;;;2.97;100.00;92532.13;5048010;28;20631;-74
2021/12/14 14:18:00;;;;;;;4.23;3.97;;;;;;;2.96;100.00;92532.97;5049935;28;20681;-73
2021/12/14 14:20:35;;;;;;;4.30;4.10;;;;;;;2.86;100.00;92528.13;5049619;27;20193;-73
2021/12/14 14:23:19;;;;;;;4.83;4.53;;;;;;;3.01;100.00;92547.03;5047182;28;20596;-73
2021/12/14 14:25:54;;;;;;;12.53;5.00;;;;;;;2.96;100.00;92547.94;5045174;28;20635;-72
2021/12/14 14:28:41;;;;;;;3.57;3.47;;;;;;;3.10;100.00;92536.88;5049588;28;20578;-73
2021/12/14 14:31:11;;;;;;;4.70;4.47;;;;;;;3.12;100.00;92540.19;5039452;28;20625;-74
2021/12/14 14:33:46;;;;;;;6.17;5.83;;;;;;;3.02;100.00;92532.88;5041137;28;20205;-75
2021/12/14 14:36:29;;;;;;;9.63;5.80;;;;;;;3.15;100.00;92537.66;5041372;28;20569;-74
2021/12/14 14:39:09;;;;;;;4.90;4.60;;;;;;;3.08;100.00;92551.06;5041429;28;20201;-75
2021/12/14 14:41:49;;;;;;;4.13;3.83;;;;;;;2.95;100.00;92553.78;5039469;28;20750;-75
2021/12/14 14:44:28;;;;;;;5.77;5.37;;;;;;;2.96;100.00;92551.25;5039363;28;20586;-75
2021/12/14 14:47:12;;;;;;;7.57;3.97;;;;;;;3.06;100.00;92555.25;5039616;28;20588;-74
2021/12/14 14:50:03;;;;;;;6.73;4.33;;;;;;;3.11;100.00;92556.00;5027778;28;20269;-74
2021/12/14 14:52:37;;;;;;;6.03;5.53;;;;;;;3.01;100.00;92556.16;5040556;28;20551;-74
2021/12/14 14:55:12;;;;;;;4.77;4.57;;;;;;;2.71;100.00;92540.00;5047172;28;20232;-75
2021/12/14 14:57:52;;;;;;;5.17;4.80;;;;;;;2.73;100.00;92556.59;5044724;27;20619;-75
2021/12/14 15:00:49;;;;;;;3.03;2.83;;;;;;;2.59;100.00;92540.19;5042793;28;20555;-75
2021/12/14 15:03:26;;;;;;;2.93;2.83;;;;;;;2.65;100.00;92522.66;5039541;28;20197;-74
2021/12/14 15:06:02;;;;;;;2.73;2.57;;;;;;;2.93;100.00;92564.59;5035378;28;20553;-74
2021/12/14 15:08:39;;;;;;;3.97;2.77;;;;;;;3.07;100.00;92563.56;5035790;28;20700;-75
2021/12/14 15:11:18;;;;;;;4.37;3.57;;;;;;;3.04;100.00;92556.16;5043273;28;20505;-75
2021/12/14 15:13:48;;;;;;;4.00;2.97;;;;;;;3.04;100.00;92566.94;5037781;28;20551;-74
2021/12/14 15:16:25;;;;;;;4.07;3.87;;;;;;;3.11;100.00;92568.47;5036116;28;21362;-74
2021/12/14 15:18:57;;;;;;;3.43;3.13;;;;;;;3.19;100.00;92571.69;5037177;28;20243;-71
2021/12/14 15:21:58;;;;;;;5.13;4.13;;;;;;;3.08;100.00;92570.22;5035720;28;20482;-71
2021/12/14 15:24:35;;;;;;;6.17;5.67;;;;;;;3.04;100.00;92564.47;5021040;28;20658;-71
2021/12/14 15:27:27;;;;;;;5.83;4.70;;;;;;;3.06;100.00;92567.72;5033759;28;20881;-72
2021/12/14 15:30:14;;;;;;;6.80;5.33;;;;;;;3.00;100.00;92562.00;5034793;28;20206;-72
2021/12/14 15:33:00;;;;;;;15.93;7.73;;;;;;;2.93;100.00;92571.25;5038595;28;20274;-73
2021/12/14 15:35:36;;;;;;;8.43;7.93;;;;;;;2.89;100.00;92572.97;5034593;28;20632;-73
2021/12/14 15:38:07;;;;;;;7.53;7.00;;;;;;;2.89;100.00;92577.97;5046394;28;20523;-73
2021/12/14 15:40:56;;;;;;;12.43;9.27;;;;;;;2.91;100.00;92560.50;5047092;28;20553;-73
2021/12/14 15:43:27;;;;;;;12.50;8.70;;;;;;;3.01;100.00;92571.97;5051090;28;20185;-71
2021/12/14 15:45:57;;;;;;;11.57;9.57;;;;;;;3.05;100.00;92576.06;5050129;28;20600;-72
2021/12/14 15:48:34;;;;;;;11.20;10.20;;;;;;;3.07;100.00;92578.53;5051503;28;20336;-71
2021/12/14 15:51:19;;;;;;;10.93;9.43;;;;;;;2.95;100.00;92558.75;5046116;28;20713;-73
2021/12/14 15:54:03;;;;;;;20.27;10.93;;;;;;;2.92;100.00;92559.66;5046215;28;20558;-73
2021/12/14 15:56:34;;;;;;;8.20;7.37;;;;;;;2.99;100.00;92581.13;5048198;28;20534;-73
2021/12/14 15:59:06;;;;;;;7.93;7.17;;;;;;;2.95;100.00;92568.75;5053070;28;20583;-73
2021/12/14 16:01:39;;;;;;;6.50;6.13;;;;;;;2.91;100.00;92572.97;5052453;28;20574;-75
2021/12/14 16:04:11;;;;;;;6.50;6.03;;;;;;;3.03;100.00;92594.41;5048443;28;20446;-73
2021/12/14 16:06:43;;;;;;;5.53;5.33;;;;;;;3.01;100.00;92591.09;5041545;28;20561;-74
2021/12/14 16:09:13;;;;;;;7.13;6.63;;;;;;;3.01;100.00;92598.59;5039779;28;20197;-74
2021/12/14 16:11:48;;;;;;;6.00;5.63;;;;;;;3.01;100.00;92596.94;5041767;28;20601;-74
2021/12/14 16:17:11;;;;;;;4.33;4.03;;;;;;;2.96;100.00;92598.66;5045629;28;20520;-75
2021/12/14 16:19:46;;;;;;;3.70;3.57;;;;;;;2.99;100.00;92600.28;5041033;27;20231;-74
2021/12/14 16:22:17;;;;;;;4.67;4.27;;;;;;;2.87;100.00;92586.34;5042731;27;20540;-74
2021/12/14 16:24:47;;;;;;;11.90;7.87;;;;;;;3.03;100.00;92597.72;5042826;28;20532;-73
2021/12/14 16:27:23;;;;;;;8.27;7.60;;;;;;;2.95;100.00;92583.72;5038716;28;20576;-73
2021/12/14 16:29:51;;;;;;;7.83;7.07;;;;;;;3.04;100.00;92601.88;5036296;28;20681;-74
2021/12/14 16:32:20;;;;;;;7.47;6.93;;;;;;;2.96;100.00;92603.66;5039712;28;20240;-74
2021/12/14 16:34:49;;;;;;;6.57;6.07;;;;;;;2.90;100.00;92611.22;5042715;28;20197;-74
2021/12/14 16:37:17;;;;;;;4.60;4.20;;;;;;;2.90;100.00;92616.22;5041086;28;20312;-74
2021/12/14 16:39:48;;;;;;;5.97;4.83;;;;;;;2.85;100.00;92610.47;5043059;28;20564;-74
2021/12/14 16:42:19;;;;;;;7.67;5.97;;;;;;;2.83;100.00;92619.63;5042581;28;20627;-73
2021/12/14 16:44:53;;;;;;;7.33;6.70;;;;;;;2.87;100.00;92621.25;5040336;28;20292;-74
2021/12/14 16:47:24;;;;;;;12.20;8.97;;;;;;;2.81;100.00;92619.69;5041543;28;20597;-73
2021/12/14 16:49:54;;;;;;;14.33;10.83;;;;;;;2.77;100.00;92618.03;5039271;28;20535;-73
2021/12/14 16:52:25;;;;;;;12.93;10.67;;;;;;;2.78;100.00;92616.38;5044501;28;20225;-73
2021/12/14 16:54:55;;;;;;;18.03;10.77;;;;;;;2.83;100.00;92620.47;5047412;28;20209;-73
2021/12/14 16:57:26;;;;;;;16.77;12.07;;;;;;;2.61;100.00;92611.63;5040873;28;20589;-74
2021/12/14 16:59:57;;;;;;;12.83;7.87;;;;;;;2.70;100.00;92621.50;5044267;28;20522;-73
2021/12/14 17:02:28;;;;;;;17.23;6.70;;;;;;;2.57;100.00;92619.16;5039250;28;20570;-74
2021/12/14 17:04:57;;;;;;;9.90;7.37;;;;;;;2.60;100.00;92616.63;5039667;28;20486;-73
2021/12/14 17:07:28;;;;;;;12.23;6.73;;;;;;;2.56;100.00;92618.34;5040630;28;20617;-73
2021/12/14 17:09:56;;;;;;;8.50;7.70;;;;;;;2.62;100.00;92609.94;5037539;28;20200;-74
2021/12/14 17:12:25;;;;;;;6.87;6.40;;;;;;;2.67;100.00;92621.50;5042167;28;20629;-74
2021/12/14 17:14:58;;;;;;;5.53;5.23;;;;;;;2.76;100.00;92623.88;5041009;28;20455;-73
2021/12/14 17:17:29;;;;;;;5.63;5.00;;;;;;;2.72;100.00;92612.31;5038696;28;20485;-73
2021/12/14 17:20:00;;;;;;;4.70;4.43;;;;;;;2.70;100.00;92610.69;5038385;28;20577;-74
2021/12/14 17:22:33;;;;;;;5.93;5.20;;;;;;;2.77;100.00;92610.56;5046458;28;20270;-74
2021/12/14 17:25:03;;;;;;;11.70;6.37;;;;;;;2.91;100.00;92621.19;5045041;28;20548;-75
2021/12/14 17:27:34;;;;;;;6.50;5.90;;;;;;;3.03;100.00;92620.19;5039406;28;20494;-75
2021/12/14 17:30:08;;;;;;;8.07;7.43;;;;;;;2.98;100.00;92616.94;5038165;28;21006;-74
2021/12/14 17:32:35;;;;;;;13.27;7.10;;;;;;;2.91;100.00;92630.34;5039550;28;20213;-73
2021/12/14 17:35:09;;;;;;;15.93;8.77;;;;;;;2.92;100.00;92619.53;5042943;28;20538;-73
2021/12/14 17:37:38;;;;;;;12.53;9.47;;;;;;;2.92;100.00;92624.50;5035858;28;20606;-75
2021/12/14 17:40:10;;;;;;;7.93;7.30;;;;;;;2.93;100.00;92619.47;5036521;28;20610;-76
2021/12/14 17:42:39;;;;;;;7.40;5.17;;;;;;;2.95;100.00;92614.47;5041981;28;20654;-76
2021/12/14 17:45:10;;;;;;;13.17;6.13;;;;;;;2.86;100.00;92600.47;5041775;27;20474;-74
2021/12/14 17:47:41;;;;;;;5.03;4.40;;;;;;;2.79;100.00;92603.06;5047851;28;20543;-75
2021/12/14 17:50:13;;;;;;;18.67;6.87;;;;;;;2.95;100.00;92616.97;5047506;28;20540;-75
2021/12/14 17:52:44;;;;;;;5.93;5.53;;;;;;;2.85;100.00;92598.00;5047294;28;20492;-76
2021/12/14 17:55:15;;;;;;;6.57;6.10;;;;;;;2.62;100.00;92560.09;5050741;28;20232;-75
2021/12/14 17:57:46;;;;;;;4.83;4.43;;;;;;;2.89;100.00;92615.38;5049851;28;20302;-76
2021/12/14 18:00:19;;;;;;;9.07;5.17;;;;;;;2.88;100.00;92617.91;5048795;28;20584;-77
2021/12/14 18:02:50;;;;;;;5.97;5.13;;;;;;;2.84;100.00;92621.28;5047964;28;20464;-76
2021/12/14 18:05:21;;;;;;;5.60;5.20;;;;;;;2.79;100.00;92615.53;5048175;27;20638;-76
2021/12/14 18:07:53;;;;;;;6.93;6.23;;;;;;;2.83;100.00;92619.63;5047610;27;20334;-76
2021/12/14 18:10:26;;;;;;;11.10;8.17;;;;;;;2.95;100.00;92631.13;5051126;28;20555;-75
2021/12/14 18:12:58;;;;;;;8.30;7.50;;;;;;;2.96;100.00;92627.78;5051158;28;20650;-75
2021/12/14 18:15:32;;;;;;;6.27;5.93;;;;;;;2.77;100.00;92618.03;5048429;28;20515;-75
2021/12/14 18:20:50;;;;;;;7.37;6.70;;;;;;;2.73;100.00;92616.44;5048482;28;20572;-75
2021/12/14 18:23:21;;;;;;;10.87;7.60;;;;;;;2.89;100.00;92630.34;5047996;28;20470;-75
2021/12/14 18:25:55;;;;;;;8.57;7.07;;;;;;;2.90;100.00;92624.53;5048022;28;20548;-75
2021/12/14 18:28:24;;;;;;;11.17;9.47;;;;;;;2.95;100.00;92631.94;5049543;28;20895;-74
2021/12/14 18:30:52;;;;;;;17.37;14.03;;;;;;;2.89;100.00;92612.06;5048143;28;20273;-75
2021/12/14 18:33:20;;;;;;;24.93;14.60;;;;;;;3.01;100.00;92634.34;5048429;27;20533;-75
2021/12/14 18:35:48;;;;;;;14.37;12.03;;;;;;;2.96;100.00;92628.59;5056502;27;20205;-75
2021/12/14 18:38:20;;;;;;;24.27;18.33;;;;;;;2.89;100.00;92627.03;5038925;28;20474;-74
2021/12/14 18:40:54;;;;;;;48.60;21.13;;;;;;;2.83;100.00;92624.63;5036686;28;20570;-75
2021/12/14 18:43:26;;;;;;;34.67;19.90;;;;;;;2.83;100.00;92627.13;5042585;28;20200;-74
2021/12/14 18:46:03;;;;;;;33.27;18.60;;;;;;;2.83;100.00;92629.59;5046949;28;20561;-74
2021/12/14 18:51:30;;;;;;;24.50;15.03;;;;;;;2.57;100.00;92631.63;5049284;28;20685;-74
2021/12/14 18:54:00;;;;;;;33.27;17.80;;;;;;;2.48;100.00;92597.66;5047437;28;20572;-76
2021/12/14 18:56:32;;;;;;;29.80;19.80;;;;;;;2.74;100.00;92632.25;5043456;28;20567;-76
2021/12/14 18:59:00;;;;;;;39.93;21.03;;;;;;;2.76;100.00;92638.84;5048017;28;20604;-75
2021/12/14 19:01:32;;;;;;;33.03;20.57;;;;;;;2.76;100.00;92635.56;5043450;28;20556;-75
2021/12/14 19:04:02;;;;;;;26.87;19.77;;;;;;;2.83;100.00;92627.94;5043135;28;20204;-75
2021/12/14 19:06:32;;;;;;;30.03;19.07;;;;;;;2.84;100.00;92633.75;5044846;28;20560;-74
2021/12/14 19:09:06;;;;;;;41.97;17.10;;;;;;;2.77;100.00;92618.03;5047313;28;20576;-75
2021/12/14 19:11:36;;;;;;;46.67;21.40;;;;;;;2.91;100.00;92627.84;5045497;28;20722;-74
2021/12/14 19:14:08;;;;;;;34.63;19.80;;;;;;;2.95;100.00;92626.13;5042175;28;20585;-74
2021/12/14 19:16:41;;;;;;;25.47;17.97;;;;;;;2.92;100.00;92632.81;5047724;28;20578;-74
2021/12/14 19:19:09;;;;;;;28.27;16.27;;;;;;;2.83;100.00;92635.44;5039762;28;20631;-74
2021/12/14 19:21:39;;;;;;;26.47;17.67;;;;;;;2.82;100.00;92640.44;5037674;28;20258;-75
2021/12/14 19:24:09;;;;;;;28.87;15.80;;;;;;;2.73;100.00;92616.44;5043590;28;20486;-74
2021/12/14 19:26:40;;;;;;;32.07;18.83;;;;;;;2.85;100.00;92636.25;5042889;28;20211;-74
2021/12/14 19:29:11;;;;;;;22.80;16.27;;;;;;;2.84;100.00;92632.09;5038289;28;20483;-73
2021/12/14 19:31:46;;;;;;;30.97;17.97;;;;;;;2.68;100.00;92624.84;5039721;28;20504;-74
2021/12/14 19:34:16;;;;;;;30.77;18.63;;;;;;;2.82;100.00;92638.75;5036680;28;20640;-74
2021/12/14 19:36:46;;;;;;;34.80;21.90;;;;;;;2.82;100.00;92641.25;5035750;28;20658;-74